sensor_id;sensor_type;location;lat;lon;timestamp;pressure;altitude;pressure_sealevel;temperature;humidity
55068;BME280;40965;52.368;9.712;2023-05-23T00:01:00;100622.63;;;16.30;100.00
55068;BME280;40965;52.368;9.712;2023-05-23T00:03:27;100622.50;;;16.33;100.00
55068;BME280;40965;52.368;9.712;2023-05-23T00:05:55;100618.97;;;16.34;100.00
55068;BME280;40965;52.368;9.712;2023-05-23T00:08:23;100622.44;;;16.36;100.00
55068;BME280;40965;52.368;9.712;2023-05-23T00:10:49;100623.34;;;16.35;100.00
55068;BME280;40965;52.368;9.712;2023-05-23T00:13:16;100618.19;;;16.31;100.00
55068;BME280;40965;52.368;9.712;2023-05-23T00:15:43;100619.06;;;16.31;100.00
55068;BME280;40965;52.368;9.712;2023-05-23T00:18:10;100618.19;;;16.31;100.00
55068;BME280;40965;52.368;9.712;2023-05-23T00:20:37;100621.66;;;16.33;100.00
55068;BME280;40965;52.368;9.712;2023-05-23T00:23:07;100615.53;;;16.32;100.00
55068;BME280;40965;52.368;9.712;2023-05-23T00:25:35;100621.59;;;16.34;100.00
55068;BME280;40965;52.368;9.712;2023-05-23T00:28:03;100611.16;;;16.31;100.00
55068;BME280;40965;52.368;9.712;2023-05-23T00:30:31;100610.34;;;16.29;100.00
55068;BME280;40965;52.368;9.712;2023-05-23T00:32:58;100612.19;;;16.27;100.00
55068;BME280;40965;52.368;9.712;2023-05-23T00:35:25;100614.00;;;16.25;100.00
55068;BME280;40965;52.368;9.712;2023-05-23T00:37:52;100622.81;;;16.26;100.00
55068;BME280;40965;52.368;9.712;2023-05-23T00:40:20;100617.41;;;16.29;100.00
55068;BME280;40965;52.368;9.712;2023-05-23T00:42:47;100620.19;;;16.24;100.00
55068;BME280;40965;52.368;9.712;2023-05-23T00:45:14;100618.50;;;16.21;100.00
55068;BME280;40965;52.368;9.712;2023-05-23T00:47:41;100616.88;;;16.17;100.00
55068;BME280;40965;52.368;9.712;2023-05-23T00:50:10;100620.53;;;16.13;100.00
55068;BME280;40965;52.368;9.712;2023-05-23T00:52:39;100620.44;;;16.16;100.00
55068;BME280;40965;52.368;9.712;2023-05-23T00:55:06;100624.09;;;16.12;100.00
55068;BME280;40965;52.368;9.712;2023-05-23T00:57:34;100626.97;;;16.04;100.00
55068;BME280;40965;52.368;9.712;2023-05-23T01:00:07;100613.94;;;16.00;100.00
55068;BME280;40965;52.368;9.712;2023-05-23T01:02:44;100615.81;;;15.96;100.00
55068;BME280;40965;52.368;9.712;2023-05-23T01:05:13;100622.09;;;15.92;100.00
55068;BME280;40965;52.368;9.712;2023-05-23T01:07:44;100623.13;;;15.88;100.00
55068;BME280;40965;52.368;9.712;2023-05-23T01:10:23;100618.84;;;15.84;100.00
55068;BME280;40965;52.368;9.712;2023-05-23T01:13:05;100637.72;;;15.70;100.00
55068;BME280;40965;52.368;9.712;2023-05-23T01:16:03;100636.03;;;15.67;100.00
55068;BME280;40965;52.368;9.712;2023-05-23T01:18:42;100633.06;;;15.48;100.00
55068;BME280;40965;52.368;9.712;2023-05-23T01:21:16;100636.66;;;15.46;100.00
55068;BME280;40965;52.368;9.712;2023-05-23T01:24:02;100635.19;;;15.35;100.00
55068;BME280;40965;52.368;9.712;2023-05-23T01:27:00;100642.53;;;15.26;100.00
55068;BME280;40965;52.368;9.712;2023-05-23T01:29:37;100638.31;;;15.18;100.00
55068;BME280;40965;52.368;9.712;2023-05-23T01:32:11;100644.56;;;15.16;100.00
55068;BME280;40965;52.368;9.712;2023-05-23T01:34:38;100642.84;;;15.15;100.00
55068;BME280;40965;52.368;9.712;2023-05-23T01:37:09;100649.13;;;15.09;100.00
55068;BME280;40965;52.368;9.712;2023-05-23T01:39:38;100642.22;;;15.05;100.00
55068;BME280;40965;52.368;9.712;2023-05-23T01:42:05;100651.44;;;14.88;100.00
55068;BME280;40965;52.368;9.712;2023-05-23T01:44:44;100650.78;;;14.80;100.00
55068;BME280;40965;52.368;9.712;2023-05-23T01:47:12;100649.91;;;14.81;100.00
55068;BME280;40965;52.368;9.712;2023-05-23T01:49:40;100651.63;;;14.82;100.00
55068;BME280;40965;52.368;9.712;2023-05-23T01:52:08;100662.31;;;14.76;100.00
55068;BME280;40965;52.368;9.712;2023-05-23T01:54:36;100657.22;;;14.70;100.00
55068;BME280;40965;52.368;9.712;2023-05-23T01:57:06;100660.78;;;14.67;100.00
55068;BME280;40965;52.368;9.712;2023-05-23T01:59:33;100657.16;;;14.71;100.00
55068;BME280;40965;52.368;9.712;2023-05-23T02:01:59;100665.13;;;14.70;100.00
55068;BME280;40965;52.368;9.712;2023-05-23T02:04:27;100658.06;;;14.70;100.00
55068;BME280;40965;52.368;9.712;2023-05-23T02:06:53;100658.16;;;14.67;100.00
55068;BME280;40965;52.368;9.712;2023-05-23T02:09:20;100664.47;;;14.60;100.00
55068;BME280;40965;52.368;9.712;2023-05-23T02:11:46;100664.53;;;14.57;100.00
55068;BME280;40965;52.368;9.712;2023-05-23T02:14:13;100662.97;;;14.50;100.00
55068;BME280;40965;52.368;9.712;2023-05-23T02:16:39;100664.91;;;14.42;100.00
55068;BME280;40965;52.368;9.712;2023-05-23T02:19:06;100659.06;;;14.29;100.00
55068;BME280;40965;52.368;9.712;2023-05-23T02:21:33;100667.38;;;14.12;100.00
55068;BME280;40965;52.368;9.712;2023-05-23T02:23:59;100665.84;;;14.01;100.00
55068;BME280;40965;52.368;9.712;2023-05-23T02:26:26;100664.31;;;13.93;100.00
55068;BME280;40965;52.368;9.712;2023-05-23T02:28:52;100668.03;;;13.84;100.00
55068;BME280;40965;52.368;9.712;2023-05-23T02:31:19;100669.13;;;13.73;100.00
55068;BME280;40965;52.368;9.712;2023-05-23T02:33:45;100677.13;;;13.67;100.00
55068;BME280;40965;52.368;9.712;2023-05-23T02:36:12;100675.44;;;13.66;100.00
55068;BME280;40965;52.368;9.712;2023-05-23T02:38:39;100684.94;;;13.72;100.00
55068;BME280;40965;52.368;9.712;2023-05-23T02:41:05;100681.34;;;13.76;100.00
55068;BME280;40965;52.368;9.712;2023-05-23T02:43:32;100689.16;;;13.81;100.00
55068;BME280;40965;52.368;9.712;2023-05-23T02:45:58;100691.69;;;13.84;100.00
55068;BME280;40965;52.368;9.712;2023-05-23T02:48:24;100688.22;;;13.83;100.00
55068;BME280;40965;52.368;9.712;2023-05-23T02:50:51;100682.16;;;13.80;100.00
55068;BME280;40965;52.368;9.712;2023-05-23T02:53:17;100685.63;;;13.80;100.00
55068;BME280;40965;52.368;9.712;2023-05-23T02:55:44;100683.03;;;13.79;100.00
55068;BME280;40965;52.368;9.712;2023-05-23T02:58:10;100691.13;;;13.69;100.00
55068;BME280;40965;52.368;9.712;2023-05-23T03:00:38;100685.13;;;13.63;100.00
55068;BME280;40965;52.368;9.712;2023-05-23T03:03:07;100682.59;;;13.58;100.00
55068;BME280;40965;52.368;9.712;2023-05-23T03:05:33;100689.69;;;13.54;100.00
55068;BME280;40965;52.368;9.712;2023-05-23T03:08:00;100688.16;;;13.44;100.00
55068;BME280;40965;52.368;9.712;2023-05-23T03:10:27;100682.91;;;13.43;100.00
55068;BME280;40965;52.368;9.712;2023-05-23T03:12:53;100688.94;;;13.48;100.00
55068;BME280;40965;52.368;9.712;2023-05-23T03:15:20;100694.00;;;13.57;100.00
55068;BME280;40965;52.368;9.712;2023-05-23T03:17:46;100685.09;;;13.64;100.00
55068;BME280;40965;52.368;9.712;2023-05-23T03:20:12;100679.75;;;13.69;100.00
55068;BME280;40965;52.368;9.712;2023-05-23T03:22:39;100683.94;;;13.78;100.00
55068;BME280;40965;52.368;9.712;2023-05-23T03:25:08;100676.81;;;13.83;100.00
55068;BME280;40965;52.368;9.712;2023-05-23T03:27:35;100680.16;;;13.89;100.00
55068;BME280;40965;52.368;9.712;2023-05-23T03:30:05;100670.47;;;13.92;100.00
55068;BME280;40965;52.368;9.712;2023-05-23T03:32:32;100669.72;;;13.86;100.00
55068;BME280;40965;52.368;9.712;2023-05-23T03:35:00;100671.50;;;13.86;100.00
55068;BME280;40965;52.368;9.712;2023-05-23T03:37:26;100663.66;;;13.83;100.00
55068;BME280;40965;52.368;9.712;2023-05-23T03:39:53;100668.06;;;13.82;100.00
55068;BME280;40965;52.368;9.712;2023-05-23T03:42:21;100667.38;;;13.72;100.00
55068;BME280;40965;52.368;9.712;2023-05-23T03:44:48;100664.81;;;13.69;100.00
55068;BME280;40965;52.368;9.712;2023-05-23T03:47:14;100670.13;;;13.68;100.00
55068;BME280;40965;52.368;9.712;2023-05-23T03:49:41;100673.66;;;13.67;100.00
55068;BME280;40965;52.368;9.712;2023-05-23T03:52:09;100664.78;;;13.71;100.00
55068;BME280;40965;52.368;9.712;2023-05-23T03:54:36;100671.72;;;13.75;100.00
55068;BME280;40965;52.368;9.712;2023-05-23T03:57:02;100666.44;;;13.77;100.00
55068;BME280;40965;52.368;9.712;2023-05-23T03:59:29;100668.16;;;13.78;100.00
55068;BME280;40965;52.368;9.712;2023-05-23T04:01:55;100661.13;;;13.78;100.00
55068;BME280;40965;52.368;9.712;2023-05-23T04:04:23;100664.53;;;13.83;100.00
55068;BME280;40965;52.368;9.712;2023-05-23T04:06:50;100660.19;;;13.81;100.00
55068;BME280;40965;52.368;9.712;2023-05-23T04:09:17;100675.09;;;13.80;100.00
55068;BME280;40965;52.368;9.712;2023-05-23T04:11:43;100671.63;;;13.80;100.00
55068;BME280;40965;52.368;9.712;2023-05-23T04:14:10;100673.34;;;13.81;100.00
55068;BME280;40965;52.368;9.712;2023-05-23T04:16:38;100680.38;;;13.80;100.00
55068;BME280;40965;52.368;9.712;2023-05-23T04:19:06;100680.41;;;13.79;100.00
55068;BME280;40965;52.368;9.712;2023-05-23T04:21:33;100671.50;;;13.86;100.00
55068;BME280;40965;52.368;9.712;2023-05-23T04:24:00;100679.34;;;13.87;100.00
55068;BME280;40965;52.368;9.712;2023-05-23T04:26:27;100679.44;;;13.83;100.00
55068;BME280;40965;52.368;9.712;2023-05-23T04:28:57;100678.41;;;13.90;100.00
55068;BME280;40965;52.368;9.712;2023-05-23T04:31:24;100680.38;;;13.80;100.00
55068;BME280;40965;52.368;9.712;2023-05-23T04:33:51;100680.31;;;13.83;100.00
55068;BME280;40965;52.368;9.712;2023-05-23T04:36:17;100674.00;;;13.90;100.00
55068;BME280;40965;52.368;9.712;2023-05-23T04:38:44;100671.31;;;13.94;100.00
55068;BME280;40965;52.368;9.712;2023-05-23T04:41:10;100674.84;;;13.93;100.00
55068;BME280;40965;52.368;9.712;2023-05-23T04:43:37;100675.66;;;13.95;100.00
55068;BME280;40965;52.368;9.712;2023-05-23T04:46:07;100686.13;;;13.98;100.00
55068;BME280;40965;52.368;9.712;2023-05-23T04:48:35;100685.25;;;13.99;100.00
55068;BME280;40965;52.368;9.712;2023-05-23T04:51:02;100685.25;;;13.97;100.00
55068;BME280;40965;52.368;9.712;2023-05-23T04:53:31;100681.13;;;13.85;100.00
55068;BME280;40965;52.368;9.712;2023-05-23T04:55:58;100685.59;;;13.82;100.00
55068;BME280;40965;52.368;9.712;2023-05-23T04:58:25;100690.94;;;13.79;100.00
55068;BME280;40965;52.368;9.712;2023-05-23T05:00:51;100680.50;;;13.76;100.00
55068;BME280;40965;52.368;9.712;2023-05-23T05:03:18;100682.19;;;13.78;100.00
55068;BME280;40965;52.368;9.712;2023-05-23T05:05:49;100686.69;;;13.73;100.00
55068;BME280;40965;52.368;9.712;2023-05-23T05:08:15;100688.50;;;13.69;100.00
55068;BME280;40965;52.368;9.712;2023-05-23T05:10:44;100685.03;;;13.69;100.00
55068;BME280;40965;52.368;9.712;2023-05-23T05:13:10;100684.03;;;13.73;100.00
55068;BME280;40965;52.368;9.712;2023-05-23T05:15:37;100684.88;;;13.75;100.00
55068;BME280;40965;52.368;9.712;2023-05-23T05:18:03;100681.31;;;13.78;100.00
55068;BME280;40965;52.368;9.712;2023-05-23T05:20:30;100685.72;;;13.77;100.00
55068;BME280;40965;52.368;9.712;2023-05-23T05:22:56;100684.09;;;13.70;100.00
55068;BME280;40965;52.368;9.712;2023-05-23T05:25:23;100686.06;;;13.60;100.00
55068;BME280;40965;52.368;9.712;2023-05-23T05:27:51;100692.19;;;13.61;100.00
55068;BME280;40965;52.368;9.712;2023-05-23T05:30:17;100685.25;;;13.56;100.00
55068;BME280;40965;52.368;9.712;2023-05-23T05:32:44;100690.59;;;13.53;100.00
55068;BME280;40965;52.368;9.712;2023-05-23T05:35:13;100690.88;;;13.39;100.00
55068;BME280;40965;52.368;9.712;2023-05-23T05:37:39;100690.06;;;13.34;100.00
55068;BME280;40965;52.368;9.712;2023-05-23T05:40:06;100689.22;;;13.32;100.00
55068;BME280;40965;52.368;9.712;2023-05-23T05:42:34;100699.72;;;13.32;100.00
55068;BME280;40965;52.368;9.712;2023-05-23T05:45:00;100690.16;;;13.30;100.00
55068;BME280;40965;52.368;9.712;2023-05-23T05:47:27;100690.06;;;13.34;100.00
55068;BME280;40965;52.368;9.712;2023-05-23T05:49:54;100694.47;;;13.34;100.00
55068;BME280;40965;52.368;9.712;2023-05-23T05:52:21;100688.44;;;13.29;100.00
55068;BME280;40965;52.368;9.712;2023-05-23T05:54:47;100692.72;;;13.33;100.00
55068;BME280;40965;52.368;9.712;2023-05-23T05:57:14;100698.03;;;13.31;100.00
55068;BME280;40965;52.368;9.712;2023-05-23T05:59:41;100692.81;;;13.28;100.00
55068;BME280;40965;52.368;9.712;2023-05-23T06:02:07;100695.53;;;13.23;100.00
55068;BME280;40965;52.368;9.712;2023-05-23T06:04:34;100701.63;;;13.26;100.00
55068;BME280;40965;52.368;9.712;2023-05-23T06:07:01;100699.94;;;13.21;100.00
55068;BME280;40965;52.368;9.712;2023-05-23T06:09:27;100704.34;;;13.21;100.00
55068;BME280;40965;52.368;9.712;2023-05-23T06:11:53;100704.31;;;13.22;100.00
55068;BME280;40965;52.368;9.712;2023-05-23T06:14:20;100701.63;;;13.26;100.00
55068;BME280;40965;52.368;9.712;2023-05-23T06:16:46;100693.72;;;13.27;100.00
55068;BME280;40965;52.368;9.712;2023-05-23T06:19:13;100691.94;;;13.28;100.00
55068;BME280;40965;52.368;9.712;2023-05-23T06:21:40;100694.50;;;13.31;100.00
55068;BME280;40965;52.368;9.712;2023-05-23T06:24:11;100695.31;;;13.34;100.00
55068;BME280;40965;52.368;9.712;2023-05-23T06:26:38;100694.47;;;13.34;100.00
55068;BME280;40965;52.368;9.712;2023-05-23T06:29:05;100700.63;;;13.33;100.00
55068;BME280;40965;52.368;9.712;2023-05-23T06:31:31;100699.75;;;13.31;100.00
55068;BME280;40965;52.368;9.712;2023-05-23T06:33:57;100707.69;;;13.29;100.00
55068;BME280;40965;52.368;9.712;2023-05-23T06:36:24;100701.47;;;13.33;100.00
55068;BME280;40965;52.368;9.712;2023-05-23T06:38:51;100710.31;;;13.29;100.00
55068;BME280;40965;52.368;9.712;2023-05-23T06:41:18;100698.97;;;13.26;100.00
55068;BME280;40965;52.368;9.712;2023-05-23T06:43:45;100708.56;;;13.30;100.00
55068;BME280;40965;52.368;9.712;2023-05-23T06:46:12;100708.56;;;13.30;100.00
55068;BME280;40965;52.368;9.712;2023-05-23T06:48:38;100723.50;;;13.28;100.00
55068;BME280;40965;52.368;9.712;2023-05-23T06:51:05;100720.91;;;13.26;100.00
55068;BME280;40965;52.368;9.712;2023-05-23T06:53:31;100726.97;;;13.28;100.00
55068;BME280;40965;52.368;9.712;2023-05-23T06:55:58;100727.78;;;13.32;100.00
55068;BME280;40965;52.368;9.712;2023-05-23T06:58:24;100725.19;;;13.30;100.00
55068;BME280;40965;52.368;9.712;2023-05-23T07:00:51;100725.22;;;13.29;100.00
55068;BME280;40965;52.368;9.712;2023-05-23T07:03:17;100727.03;;;13.25;100.00
55068;BME280;40965;52.368;9.712;2023-05-23T07:05:44;100741.03;;;13.26;100.00
55068;BME280;40965;52.368;9.712;2023-05-23T07:08:10;100736.63;;;13.28;100.00
55068;BME280;40965;52.368;9.712;2023-05-23T07:10:37;100739.34;;;13.24;100.00
55068;BME280;40965;52.368;9.712;2023-05-23T07:13:05;100739.34;;;13.23;100.00
55068;BME280;40965;52.368;9.712;2023-05-23T07:15:31;100741.97;;;13.23;100.00
55068;BME280;40965;52.368;9.712;2023-05-23T07:17:58;100741.09;;;13.24;100.00
55068;BME280;40965;52.368;9.712;2023-05-23T07:20:24;100742.84;;;13.23;100.00
55068;BME280;40965;52.368;9.712;2023-05-23T07:22:51;100741.13;;;13.22;100.00
55068;BME280;40965;52.368;9.712;2023-05-23T07:25:17;100738.53;;;13.21;100.00
55068;BME280;40965;52.368;9.712;2023-05-23T07:27:44;100747.28;;;13.20;100.00
55068;BME280;40965;52.368;9.712;2023-05-23T07:30:10;100744.63;;;13.21;100.00
55068;BME280;40965;52.368;9.712;2023-05-23T07:32:37;100757.84;;;13.18;100.00
55068;BME280;40965;52.368;9.712;2023-05-23T07:35:04;100750.81;;;13.19;100.00
55068;BME280;40965;52.368;9.712;2023-05-23T07:37:31;100760.53;;;13.14;100.00
55068;BME280;40965;52.368;9.712;2023-05-23T07:39:57;100765.84;;;13.12;100.00
55068;BME280;40965;52.368;9.712;2023-05-23T07:42:24;100758.00;;;13.09;100.00
55068;BME280;40965;52.368;9.712;2023-05-23T07:44:50;100763.31;;;13.06;100.00
55068;BME280;40965;52.368;9.712;2023-05-23T07:47:17;100772.25;;;12.94;100.00
55068;BME280;40965;52.368;9.712;2023-05-23T07:49:43;100771.44;;;12.90;100.00
55068;BME280;40965;52.368;9.712;2023-05-23T07:52:11;100769.72;;;12.88;100.00
55068;BME280;40965;52.368;9.712;2023-05-23T07:54:38;100775.13;;;12.82;100.00
55068;BME280;40965;52.368;9.712;2023-05-23T07:57:04;100774.34;;;12.75;100.00
55068;BME280;40965;52.368;9.712;2023-05-23T07:59:33;100777.88;;;12.72;100.00
55068;BME280;40965;52.368;9.712;2023-05-23T08:02:00;100784.91;;;12.70;100.00
55068;BME280;40965;52.368;9.712;2023-05-23T08:04:27;100792.00;;;12.65;100.00
55068;BME280;40965;52.368;9.712;2023-05-23T08:06:55;100793.75;;;12.63;100.00
55068;BME280;40965;52.368;9.712;2023-05-23T08:09:22;100795.63;;;12.58;100.00
55068;BME280;40965;52.368;9.712;2023-05-23T08:11:48;100804.38;;;12.57;100.00
55068;BME280;40965;52.368;9.712;2023-05-23T08:14:15;100815.81;;;12.54;100.00
55068;BME280;40965;52.368;9.712;2023-05-23T08:16:41;100815.00;;;12.49;100.00
55068;BME280;40965;52.368;9.712;2023-05-23T08:19:08;100807.16;;;12.45;100.00
55068;BME280;40965;52.368;9.712;2023-05-23T08:21:35;100819.53;;;12.38;100.00
55068;BME280;40965;52.368;9.712;2023-05-23T08:24:04;100820.47;;;12.32;100.00
55068;BME280;40965;52.368;9.712;2023-05-23T08:26:30;100823.22;;;12.24;100.00
55068;BME280;40965;52.368;9.712;2023-05-23T08:29:00;100825.84;;;12.21;100.00
55068;BME280;40965;52.368;9.712;2023-05-23T08:31:28;100834.63;;;12.22;100.00
55068;BME280;40965;52.368;9.712;2023-05-23T08:33:55;100821.50;;;12.22;100.00
55068;BME280;40965;52.368;9.712;2023-05-23T08:36:22;100835.56;;;12.16;100.00
55068;BME280;40965;52.368;9.712;2023-05-23T08:38:49;100842.59;;;12.14;100.00
55068;BME280;40965;52.368;9.712;2023-05-23T08:41:20;100839.94;;;12.16;100.00
55068;BME280;40965;52.368;9.712;2023-05-23T08:43:48;100845.13;;;12.19;100.00
55068;BME280;40965;52.368;9.712;2023-05-23T08:46:14;100850.38;;;12.19;100.00
55068;BME280;40965;52.368;9.712;2023-05-23T08:48:42;100858.34;;;12.14;100.00
55068;BME280;40965;52.368;9.712;2023-05-23T08:51:09;100858.38;;;12.11;100.00
55068;BME280;40965;52.368;9.712;2023-05-23T08:53:44;100858.41;;;12.08;100.00
55068;BME280;40965;52.368;9.712;2023-05-23T08:56:12;100851.41;;;12.08;100.00
55068;BME280;40965;52.368;9.712;2023-05-23T08:58:40;100863.63;;;12.10;100.00
55068;BME280;40965;52.368;9.712;2023-05-23T09:01:08;100868.94;;;12.05;100.00
55068;BME280;40965;52.368;9.712;2023-05-23T09:03:37;100875.09;;;11.99;100.00
55068;BME280;40965;52.368;9.712;2023-05-23T09:06:06;100881.25;;;11.94;100.00
55068;BME280;40965;52.368;9.712;2023-05-23T09:08:34;100886.56;;;11.90;100.00
55068;BME280;40965;52.368;9.712;2023-05-23T09:11:02;100892.66;;;11.91;100.00
55068;BME280;40965;52.368;9.712;2023-05-23T09:13:30;100893.59;;;11.85;100.00
55068;BME280;40965;52.368;9.712;2023-05-23T09:18:25;100912.91;;;11.78;100.00
55068;BME280;40965;52.368;9.712;2023-05-23T09:20:52;100914.66;;;11.79;100.00
55068;BME280;40965;52.368;9.712;2023-05-23T09:23:19;100912.88;;;11.83;100.00
55068;BME280;40965;52.368;9.712;2023-05-23T09:25:46;100923.28;;;11.90;100.00
55068;BME280;40965;52.368;9.712;2023-05-23T09:28:13;100924.09;;;11.94;100.00
55068;BME280;40965;52.368;9.712;2023-05-23T09:30:40;100926.72;;;11.94;100.00
55068;BME280;40965;52.368;9.712;2023-05-23T09:33:06;100930.25;;;11.90;100.00
55068;BME280;40965;52.368;9.712;2023-05-23T09:35:33;100929.44;;;11.88;100.00
55068;BME280;40965;52.368;9.712;2023-05-23T09:37:59;100937.31;;;11.85;100.00
55068;BME280;40965;52.368;9.712;2023-05-23T09:40:30;100935.59;;;11.84;100.00
55068;BME280;40965;52.368;9.712;2023-05-23T09:43:01;100945.22;;;11.82;100.00
55068;BME280;40965;52.368;9.712;2023-05-23T09:45:31;100946.09;;;11.84;100.00
55068;BME280;40965;52.368;9.712;2023-05-23T09:47:58;100957.41;;;11.87;100.00
55068;BME280;40965;52.368;9.712;2023-05-23T09:50:32;100952.16;;;11.89;100.00
55068;BME280;40965;52.368;9.712;2023-05-23T09:52:59;100956.56;;;11.85;100.00
55068;BME280;40965;52.368;9.712;2023-05-23T09:55:26;100961.81;;;11.84;100.00
55068;BME280;40965;52.368;9.712;2023-05-23T09:57:53;100971.44;;;11.83;100.00
55068;BME280;40965;52.368;9.712;2023-05-23T10:00:22;100962.72;;;11.81;100.00
55068;BME280;40965;52.368;9.712;2023-05-23T10:03:11;100967.09;;;11.79;100.00
55068;BME280;40965;52.368;9.712;2023-05-23T10:05:45;100975.81;;;11.84;100.00
55068;BME280;40965;52.368;9.712;2023-05-23T10:08:13;100983.63;;;11.87;100.00
55068;BME280;40965;52.368;9.712;2023-05-23T10:13:48;100984.47;;;11.97;100.00
55068;BME280;40965;52.368;9.712;2023-05-23T10:16:39;100999.31;;;12.00;100.00
55068;BME280;40965;52.368;9.712;2023-05-23T10:19:43;100995.81;;;11.95;100.00
55068;BME280;40965;52.368;9.712;2023-05-23T10:22:14;100997.56;;;11.92;100.00
55068;BME280;40965;52.368;9.712;2023-05-23T10:24:43;100993.22;;;11.96;100.00
55068;BME280;40965;52.368;9.712;2023-05-23T10:27:10;101006.31;;;12.01;100.00
55068;BME280;40965;52.368;9.712;2023-05-23T10:29:37;101009.81;;;12.00;100.00
55068;BME280;40965;52.368;9.712;2023-05-23T10:32:04;101009.75;;;12.04;100.00
55068;BME280;40965;52.368;9.712;2023-05-23T10:34:36;101014.13;;;12.05;100.00
55068;BME280;40965;52.368;9.712;2023-05-23T10:37:06;101009.75;;;12.06;100.00
55068;BME280;40965;52.368;9.712;2023-05-23T10:39:45;101025.47;;;12.04;100.00
55068;BME280;40965;52.368;9.712;2023-05-23T10:42:34;101028.13;;;12.03;100.00
55068;BME280;40965;52.368;9.712;2023-05-23T10:45:18;101039.53;;;11.94;100.00
55068;BME280;40965;52.368;9.712;2023-05-23T10:47:48;101039.56;;;11.91;100.00
55068;BME280;40965;52.368;9.712;2023-05-23T10:50:30;101042.22;;;11.85;100.00
55068;BME280;40965;52.368;9.712;2023-05-23T10:53:00;101044.94;;;11.79;100.00
55068;BME280;40965;52.368;9.712;2023-05-23T10:55:31;101048.50;;;11.68;100.00
55068;BME280;40965;52.368;9.712;2023-05-23T10:58:17;101061.63;;;11.64;100.00
55068;BME280;40965;52.368;9.712;2023-05-23T11:00:53;101065.19;;;11.58;100.00
55068;BME280;40965;52.368;9.712;2023-05-23T11:03:48;101066.97;;;11.51;100.00
55068;BME280;40965;52.368;9.712;2023-05-23T11:06:43;101066.09;;;11.49;100.00
55068;BME280;40965;52.368;9.712;2023-05-23T11:09:14;101066.13;;;11.46;100.00
55068;BME280;40965;52.368;9.712;2023-05-23T11:14:16;101073.94;;;11.52;100.00
55068;BME280;40965;52.368;9.712;2023-05-23T11:16:44;101074.81;;;11.53;100.00
55068;BME280;40965;52.368;9.712;2023-05-23T11:21:54;101088.78;;;11.56;100.00
55068;BME280;40965;52.368;9.712;2023-05-23T11:24:22;101087.00;;;11.62;100.00
55068;BME280;40965;52.368;9.712;2023-05-23T11:26:58;101093.03;;;11.73;100.00
55068;BME280;40965;52.368;9.712;2023-05-23T11:29:26;101092.03;;;11.91;100.00
55068;BME280;40965;52.368;9.712;2023-05-23T11:31:57;101092.75;;;12.15;100.00
55068;BME280;40965;52.368;9.712;2023-05-23T11:34:26;101102.31;;;12.23;100.00
55068;BME280;40965;52.368;9.712;2023-05-23T11:36:54;101105.78;;;12.27;100.00
55068;BME280;40965;52.368;9.712;2023-05-23T11:39:22;101114.47;;;12.34;100.00
55068;BME280;40965;52.368;9.712;2023-05-23T11:42:01;101098.50;;;12.57;100.00
55068;BME280;40965;52.368;9.712;2023-05-23T11:44:29;101102.75;;;12.70;100.00
55068;BME280;40965;52.368;9.712;2023-05-23T11:47:00;101098.44;;;12.65;100.00
55068;BME280;40965;52.368;9.712;2023-05-23T11:49:33;101107.31;;;12.50;100.00
55068;BME280;40965;52.368;9.712;2023-05-23T11:52:04;101116.13;;;12.44;100.00
55068;BME280;40965;52.368;9.712;2023-05-23T11:54:32;101115.41;;;12.27;100.00
55068;BME280;40965;52.368;9.712;2023-05-23T11:56:58;101119.00;;;12.15;100.00
55068;BME280;40965;52.368;9.712;2023-05-23T11:59:25;101123.28;;;12.27;100.00
55068;BME280;40965;52.368;9.712;2023-05-23T12:01:53;101118.69;;;12.52;100.00
55068;BME280;40965;52.368;9.712;2023-05-23T12:04:20;101119.81;;;13.12;100.00
55068;BME280;40965;52.368;9.712;2023-05-23T12:06:47;101114.97;;;14.09;94.71
55068;BME280;40965;52.368;9.712;2023-05-23T12:09:15;101114.88;;;14.68;87.92
55068;BME280;40965;52.368;9.712;2023-05-23T12:11:43;101116.06;;;14.97;85.91
55068;BME280;40965;52.368;9.712;2023-05-23T12:14:14;101114.66;;;15.22;83.57
55068;BME280;40965;52.368;9.712;2023-05-23T12:16:45;101117.03;;;15.76;80.89
55068;BME280;40965;52.368;9.712;2023-05-23T12:19:15;101114.63;;;16.04;78.54
55068;BME280;40965;52.368;9.712;2023-05-23T12:21:47;101113.91;;;15.97;79.22
55068;BME280;40965;52.368;9.712;2023-05-23T12:24:17;101126.16;;;15.61;77.30
55068;BME280;40965;52.368;9.712;2023-05-23T12:26:49;101125.25;;;15.21;79.83
55068;BME280;40965;52.368;9.712;2023-05-23T12:29:31;101124.22;;;14.84;78.64
55068;BME280;40965;52.368;9.712;2023-05-23T12:32:00;101126.31;;;14.67;81.00
55068;BME280;40965;52.368;9.712;2023-05-23T12:34:27;101132.28;;;14.75;79.54
55068;BME280;40965;52.368;9.712;2023-05-23T12:36:59;101128.81;;;14.73;79.62
55068;BME280;40965;52.368;9.712;2023-05-23T12:39:28;101128.91;;;14.68;78.66
55068;BME280;40965;52.368;9.712;2023-05-23T12:42:09;101124.59;;;14.61;78.59
55068;BME280;40965;52.368;9.712;2023-05-23T12:44:42;101130.56;;;15.19;76.09
55068;BME280;40965;52.368;9.712;2023-05-23T12:47:10;101121.25;;;15.44;73.48
55068;BME280;40965;52.368;9.712;2023-05-23T12:49:37;101124.53;;;15.96;71.86
55068;BME280;40965;52.368;9.712;2023-05-23T12:52:04;101127.69;;;16.79;69.38
55068;BME280;40965;52.368;9.712;2023-05-23T12:54:31;101124.13;;;17.43;66.36
55068;BME280;40965;52.368;9.712;2023-05-23T12:56:57;101127.97;;;17.63;63.97
55068;BME280;40965;52.368;9.712;2023-05-23T12:59:24;101115.69;;;17.30;65.15